Time;durP1;ratioP1;P1;durP2;ratioP2;P2;SDS_P1;SDS_P2;PMS_P1;PMS_P2;Temp;Humidity;BMP_temperature;BMP_pressure;BME280_temperature;BME280_humidity;BME280_pressure;Samples;Min_cycle;Max_cycle;Signal;HPM_P1;HPM_P2
2022/04/07 00:01:15;;;;;;;;;;;9.60;99.90;;;;;;5133699;27;19923;-72
2022/04/07 00:03:41;;;;;;;;;;;9.60;99.90;;;;;;5133934;27;20303;-72
2022/04/07 00:06:09;;;;;;;;;;;9.60;99.90;;;;;;5132130;27;19989;-72
2022/04/07 00:08:41;;;;;;;;;;;9.60;99.90;;;;;;5133553;27;19919;-72
2022/04/07 00:11:07;;;;;;;;;;;9.50;99.90;;;;;;5132288;28;19926;-71
2022/04/07 00:13:33;;;;;;;;;;;9.50;99.90;;;;;;5133700;27;19915;-72
2022/04/07 00:16:00;;;;;;;;;;;9.50;99.90;;;;;;5133524;27;19923;-72
2022/04/07 00:18:25;;;;;;;;;;;9.60;99.90;;;;;;5133314;27;19916;-72
2022/04/07 00:20:52;;;;;;;;;;;9.50;99.90;;;;;;5133436;27;20276;-72
2022/04/07 00:23:18;;;;;;;;;;;9.50;99.90;;;;;;5133605;27;19986;-72
2022/04/07 00:25:44;;;;;;;;;;;9.50;99.90;;;;;;5133395;27;20006;-71
2022/04/07 00:28:09;;;;;;;;;;;9.50;99.90;;;;;;5133644;27;19915;-72
2022/04/07 00:30:37;;;;;;;;;;;9.50;99.90;;;;;;5133250;27;19915;-72
2022/04/07 00:33:03;;;;;;;;;;;9.50;99.90;;;;;;5132156;28;19915;-72
2022/04/07 00:35:29;;;;;;;;;;;9.50;99.90;;;;;;5133321;27;19923;-72
2022/04/07 00:37:54;;;;;;;;;;;9.50;99.90;;;;;;5132350;28;19916;-72
2022/04/07 00:40:20;;;;;;;;;;;9.50;99.90;;;;;;5114522;28;19916;-72
2022/04/07 00:42:46;;;;;;;;;;;9.50;99.90;;;;;;5133141;27;19958;-72
2022/04/07 00:45:12;;;;;;;;;;;9.50;99.90;;;;;;5096385;27;1040552;-71
2022/04/07 00:47:38;;;;;;;;;;;9.40;99.90;;;;;;5134321;27;19919;-72
2022/04/07 00:50:03;;;;;;;;;;;9.50;99.90;;;;;;5132796;27;19999;-72
2022/04/07 00:52:30;;;;;;;;;;;9.40;99.90;;;;;;5132694;27;19916;-72
2022/04/07 00:54:56;;;;;;;;;;;9.40;99.90;;;;;;5134190;27;19922;-72
2022/04/07 00:57:21;;;;;;;;;;;9.50;99.90;;;;;;5132857;27;19928;-72
2022/04/07 00:59:47;;;;;;;;;;;9.50;99.90;;;;;;5133012;27;20223;-72
2022/04/07 01:02:13;;;;;;;;;;;9.40;99.90;;;;;;5134277;27;19915;-72
2022/04/07 01:04:39;;;;;;;;;;;9.50;99.90;;;;;;5134249;27;19915;-72
2022/04/07 01:07:06;;;;;;;;;;;9.40;99.90;;;;;;5135385;27;19975;-71
2022/04/07 01:09:31;;;;;;;;;;;9.50;99.90;;;;;;5145330;27;19920;-71
2022/04/07 01:11:57;;;;;;;;;;;9.50;99.90;;;;;;5127605;27;19916;-72
2022/04/07 01:14:22;;;;;;;;;;;9.40;99.90;;;;;;5142583;27;19915;-72
2022/04/07 01:16:48;;;;;;;;;;;9.40;99.90;;;;;;5140189;27;19923;-72
2022/04/07 01:19:13;;;;;;;;;;;9.50;99.90;;;;;;5133423;27;20387;-71
2022/04/07 01:21:39;;;;;;;;;;;9.40;99.90;;;;;;5133481;27;19915;-72
2022/04/07 01:24:09;;;;;;;;;;;9.40;99.90;;;;;;5133390;27;19939;-72
2022/04/07 01:26:37;;;;;;;;;;;9.40;99.90;;;;;;5133574;27;19915;-72
2022/04/07 01:29:03;;;;;;;;;;;9.40;99.90;;;;;;5133057;27;19916;-72
2022/04/07 01:31:29;;;;;;;;;;;9.40;99.90;;;;;;5133244;27;20401;-72
2022/04/07 01:33:56;;;;;;;;;;;9.40;99.90;;;;;;5133362;27;19916;-72
2022/04/07 01:36:21;;;;;;;;;;;9.50;99.90;;;;;;5133114;27;19935;-72
2022/04/07 01:38:47;;;;;;;;;;;9.50;99.90;;;;;;5131543;27;19938;-72
2022/04/07 01:41:13;;;;;;;;;;;9.50;99.90;;;;;;5133186;27;20005;-72
2022/04/07 01:43:39;;;;;;;;;;;9.40;99.90;;;;;;5133363;27;19922;-72
2022/04/07 01:46:05;;;;;;;;;;;9.50;99.90;;;;;;5131934;27;19915;-71
2022/04/07 01:48:30;;;;;;;;;;;9.40;99.90;;;;;;5131752;27;19915;-72
2022/04/07 01:50:56;;;;;;;;;;;9.40;99.90;;;;;;5132964;27;19926;-72
2022/04/07 01:53:22;;;;;;;;;;;9.50;99.90;;;;;;5132945;27;19927;-72
2022/04/07 01:55:47;;;;;;;;;;;9.40;99.90;;;;;;5131496;27;19920;-72
2022/04/07 01:58:16;;;;;;;;;;;9.40;99.90;;;;;;5132820;27;19937;-72
2022/04/07 02:00:41;;;;;;;;;;;9.40;99.90;;;;;;5131298;27;19919;-71
2022/04/07 02:03:08;;;;;;;;;;;9.40;99.90;;;;;;5132825;27;20027;-72
2022/04/07 02:05:35;;;;;;;;;;;9.40;99.90;;;;;;5132798;27;19915;-71
2022/04/07 02:08:00;;;;;;;;;;;9.40;99.90;;;;;;5132641;27;20005;-71
2022/04/07 02:10:28;;;;;;;;;;;9.40;99.90;;;;;;5131363;27;19959;-71
2022/04/07 02:12:54;;;;;;;;;;;9.40;99.90;;;;;;5132670;27;20283;-72
2022/04/07 02:15:19;;;;;;;;;;;9.40;99.90;;;;;;5132920;27;19967;-72
2022/04/07 02:17:44;;;;;;;;;;;9.40;99.90;;;;;;5132480;27;19915;-71
2022/04/07 02:20:10;;;;;;;;;;;9.40;99.90;;;;;;5135793;27;19919;-72
2022/04/07 02:22:36;;;;;;;;;;;9.40;99.90;;;;;;5138981;27;19919;-71
2022/04/07 02:25:02;;;;;;;;;;;9.40;99.90;;;;;;5139979;27;19962;-71
2022/04/07 02:27:37;;;;;;;;;;;9.40;99.90;;;;;;5140665;27;19916;-71
2022/04/07 02:30:11;;;;;;;;;;;9.40;99.90;;;;;;5133913;27;19960;-72
2022/04/07 02:32:36;;;;;;;;;;;9.30;99.90;;;;;;5132381;27;20356;-72
2022/04/07 02:35:02;;;;;;;;;;;9.40;99.90;;;;;;5132279;27;19950;-71
2022/04/07 02:37:27;;;;;;;;;;;9.30;99.90;;;;;;5131115;27;20391;-71
2022/04/07 02:39:53;;;;;;;;;;;9.30;99.90;;;;;;5132152;27;19961;-71
2022/04/07 02:42:19;;;;;;;;;;;9.30;99.90;;;;;;5132344;27;19915;-72
2022/04/07 02:44:45;;;;;;;;;;;9.30;99.90;;;;;;5132326;27;19947;-72
2022/04/07 02:47:10;;;;;;;;;;;9.30;99.90;;;;;;5131082;28;20620;-71
2022/04/07 02:49:39;;;;;;;;;;;9.30;99.90;;;;;;5130934;28;19923;-71
2022/04/07 02:52:08;;;;;;;;;;;9.30;99.90;;;;;;5132219;27;19983;-71
2022/04/07 02:54:33;;;;;;;;;;;9.30;99.90;;;;;;5132159;27;19916;-71
2022/04/07 02:56:59;;;;;;;;;;;9.30;99.90;;;;;;5132090;27;19919;-72
2022/04/07 02:59:24;;;;;;;;;;;9.30;99.90;;;;;;5131733;27;20002;-72
2022/04/07 03:01:51;;;;;;;;;;;9.30;99.90;;;;;;5131845;27;20314;-72
2022/04/07 03:04:17;;;;;;;;;;;9.30;99.90;;;;;;5132187;27;20268;-72
2022/04/07 03:06:43;;;;;;;;;;;9.30;99.90;;;;;;5132015;27;20041;-71
2022/04/07 03:09:08;;;;;;;;;;;9.30;99.90;;;;;;5131025;27;19938;-71
2022/04/07 03:11:34;;;;;;;;;;;9.30;99.90;;;;;;5131979;27;20478;-72
2022/04/07 03:13:59;;;;;;;;;;;9.30;99.90;;;;;;5131927;27;19916;-73
2022/04/07 03:16:25;;;;;;;;;;;9.20;99.90;;;;;;5131804;27;19987;-75
2022/04/07 03:18:50;;;;;;;;;;;9.20;99.90;;;;;;5131546;27;19916;-74
2022/04/07 03:21:16;;;;;;;;;;;9.20;99.90;;;;;;5131758;27;19965;-75
2022/04/07 03:23:41;;;;;;;;;;;9.20;99.90;;;;;;5113450;28;19964;-75
2022/04/07 03:26:07;;;;;;;;;;;9.10;99.90;;;;;;5131785;27;20422;-74
2022/04/07 03:28:32;;;;;;;;;;;9.10;99.90;;;;;;5131652;27;19919;-72
2022/04/07 03:30:58;;;;;;;;;;;9.10;99.90;;;;;;5131673;27;20371;-72
2022/04/07 03:33:23;;;;;;;;;;;9.10;99.90;;;;;;5130601;28;19915;-72
2022/04/07 03:35:49;;;;;;;;;;;9.10;99.90;;;;;;5113315;28;20434;-72
2022/04/07 03:38:15;;;;;;;;;;;9.10;99.90;;;;;;5131851;27;20539;-72
2022/04/07 03:40:41;;;;;;;;;;;9.10;99.90;;;;;;5134076;27;20298;-73
2022/04/07 03:43:06;;;;;;;;;;;9.10;99.90;;;;;;5135572;27;19919;-74
2022/04/07 03:45:32;;;;;;;;;;;9.10;99.90;;;;;;5134239;27;19923;-73
2022/04/07 03:47:57;;;;;;;;;;;9.00;99.90;;;;;;5135643;27;19919;-70
2022/04/07 03:50:23;;;;;;;;;;;9.00;99.90;;;;;;5135224;27;19915;-70
2022/04/07 03:52:48;;;;;;;;;;;9.00;99.90;;;;;;5116724;27;19923;-70
2022/04/07 03:55:14;;;;;;;;;;;9.00;99.90;;;;;;5135316;27;19915;-70
2022/04/07 03:57:40;;;;;;;;;;;9.10;99.90;;;;;;5135241;27;19919;-70
2022/04/07 04:00:06;;;;;;;;;;;9.10;99.90;;;;;;5134841;27;20322;-70
2022/04/07 04:02:31;;;;;;;;;;;9.00;99.90;;;;;;5133797;27;19923;-70
2022/04/07 04:04:57;;;;;;;;;;;9.00;99.90;;;;;;5135260;27;19919;-74
2022/04/07 04:07:25;;;;;;;;;;;9.00;99.90;;;;;;5133922;27;20011;-74
2022/04/07 04:09:51;;;;;;;;;;;9.10;99.90;;;;;;5133682;27;19968;-74
2022/04/07 04:12:16;;;;;;;;;;;9.10;99.90;;;;;;5133729;27;20386;-75
2022/04/07 04:14:42;;;;;;;;;;;9.10;99.90;;;;;;5134972;27;19915;-73
2022/04/07 04:17:07;;;;;;;;;;;9.10;99.90;;;;;;5133919;27;20286;-73
2022/04/07 04:19:33;;;;;;;;;;;9.10;99.90;;;;;;5133342;27;19922;-73
2022/04/07 04:21:59;;;;;;;;;;;9.10;99.90;;;;;;5133744;27;19922;-72
2022/04/07 04:24:24;;;;;;;;;;;9.10;99.90;;;;;;5135000;27;19915;-72
2022/04/07 04:26:50;;;;;;;;;;;9.10;99.90;;;;;;5134950;27;19962;-72
2022/04/07 04:29:15;;;;;;;;;;;9.10;99.90;;;;;;5134503;27;19915;-71
2022/04/07 04:31:41;;;;;;;;;;;9.00;99.90;;;;;;5134875;27;19926;-71
2022/04/07 04:34:06;;;;;;;;;;;9.00;99.90;;;;;;5134971;27;19926;-71
2022/04/07 04:36:34;;;;;;;;;;;9.10;99.90;;;;;;5134732;27;20055;-71
2022/04/07 04:39:00;;;;;;;;;;;9.00;99.90;;;;;;5134203;27;20386;-71
2022/04/07 04:41:25;;;;;;;;;;;9.00;99.90;;;;;;5134469;27;19968;-71
2022/04/07 04:43:51;;;;;;;;;;;9.00;99.90;;;;;;5133113;27;19919;-71
2022/04/07 04:46:16;;;;;;;;;;;9.00;99.90;;;;;;5134294;27;20560;-71
2022/04/07 04:48:42;;;;;;;;;;;9.00;99.90;;;;;;5133873;27;19919;-71
2022/04/07 04:51:08;;;;;;;;;;;8.90;99.90;;;;;;5131361;27;19969;-71
2022/04/07 04:53:33;;;;;;;;;;;8.90;99.90;;;;;;5134208;27;20287;-71
2022/04/07 04:55:59;;;;;;;;;;;8.90;99.90;;;;;;5132721;27;19919;-71
2022/04/07 04:58:24;;;;;;;;;;;8.90;99.90;;;;;;5133618;27;19915;-71
2022/04/07 05:00:50;;;;;;;;;;;8.90;99.90;;;;;;5133923;27;19915;-71
2022/04/07 05:03:16;;;;;;;;;;;8.90;99.90;;;;;;5133795;27;20006;-71
2022/04/07 05:05:41;;;;;;;;;;;8.90;99.90;;;;;;5133888;27;19923;-71
2022/04/07 05:08:07;;;;;;;;;;;8.90;99.90;;;;;;5133863;27;19915;-71
2022/04/07 05:10:32;;;;;;;;;;;8.90;99.90;;;;;;5132691;27;19917;-72
2022/04/07 05:12:58;;;;;;;;;;;8.90;99.90;;;;;;5130159;27;19919;-72
2022/04/07 05:15:24;;;;;;;;;;;8.90;99.90;;;;;;5133182;27;20399;-73
2022/04/07 05:17:53;;;;;;;;;;;8.90;99.90;;;;;;5133670;27;20006;-73
2022/04/07 05:20:18;;;;;;;;;;;8.90;99.90;;;;;;5132212;27;19968;-72
2022/04/07 05:22:44;;;;;;;;;;;8.90;99.90;;;;;;5133531;27;19916;-73
2022/04/07 05:25:10;;;;;;;;;;;8.90;99.90;;;;;;5133548;27;19916;-74
2022/04/07 05:27:36;;;;;;;;;;;8.90;99.90;;;;;;5133432;27;19922;-74
2022/04/07 05:30:06;;;;;;;;;;;8.90;99.90;;;;;;5131804;27;19925;-76
2022/04/07 05:32:31;;;;;;;;;;;8.80;99.90;;;;;;5132014;27;20378;-75
2022/04/07 05:34:57;;;;;;;;;;;8.80;99.90;;;;;;5131794;27;19926;-75
2022/04/07 05:37:24;;;;;;;;;;;8.80;99.90;;;;;;5132556;27;19919;-75
2022/04/07 05:39:51;;;;;;;;;;;8.90;99.90;;;;;;5132464;27;19962;-75
2022/04/07 05:42:17;;;;;;;;;;;8.90;99.90;;;;;;5132987;27;19919;-75
2022/04/07 05:44:43;;;;;;;;;;;8.90;99.90;;;;;;5132588;27;19921;-75
2022/04/07 05:47:08;;;;;;;;;;;8.90;99.90;;;;;;5132282;27;20294;-75
2022/04/07 05:49:34;;;;;;;;;;;8.90;99.90;;;;;;5132228;27;19915;-75
2022/04/07 05:52:00;;;;;;;;;;;8.90;99.90;;;;;;5114605;27;20298;-75
2022/04/07 05:54:27;;;;;;;;;;;8.90;99.90;;;;;;5131585;27;19926;-76
2022/04/07 05:56:52;;;;;;;;;;;8.90;99.90;;;;;;5131352;27;20287;-75
2022/04/07 05:59:18;;;;;;;;;;;8.90;99.90;;;;;;5131095;27;19927;-76
2022/04/07 06:01:43;;;;;;;;;;;8.90;99.90;;;;;;5131524;27;19915;-74
2022/04/07 06:04:08;;;;;;;;;;;8.90;99.90;;;;;;5132573;27;19916;-73
2022/04/07 06:06:34;;;;;;;;;;;8.90;99.90;;;;;;5132789;27;19915;-71
2022/04/07 06:08:59;;;;;;;;;;;8.90;99.90;;;;;;5132444;27;20389;-68
2022/04/07 06:11:25;;;;;;;;;;;8.80;99.90;;;;;;5132016;27;19998;-70
2022/04/07 06:13:50;;;;;;;;;;;8.30;99.90;;;;;;5132896;27;19915;-71
2022/04/07 06:16:16;;;;;;;;;;;8.10;99.90;;;;;;5132763;27;19923;-70
2022/04/07 06:18:41;;;;;;;;;;;8.10;99.90;;;;;;5123431;27;20456;-71
2022/04/07 06:21:07;;;;;;;;;;;8.10;99.90;;;;;;5094019;28;19920;-73
2022/04/07 06:23:32;;;;;;;;;;;8.00;99.90;;;;;;5115854;27;20561;-72
2022/04/07 06:25:58;;;;;;;;;;;7.90;99.90;;;;;;5124450;27;19922;-71
2022/04/07 06:28:23;;;;;;;;;;;7.90;99.90;;;;;;5131256;27;19989;-72
2022/04/07 06:30:51;;;;;;;;;;;7.80;99.90;;;;;;5130845;27;19915;-72
2022/04/07 06:33:17;;;;;;;;;;;7.80;99.90;;;;;;5131097;27;19942;-73
2022/04/07 06:35:43;;;;;;;;;;;7.70;99.90;;;;;;5132373;27;20378;-73
2022/04/07 06:38:08;;;;;;;;;;;7.70;99.90;;;;;;5132413;27;19922;-71
2022/04/07 06:40:34;;;;;;;;;;;7.60;99.90;;;;;;5131832;27;19916;-70
2022/04/07 06:42:59;;;;;;;;;;;7.60;99.90;;;;;;5132228;27;20010;-70
2022/04/07 06:45:26;;;;;;;;;;;7.60;99.90;;;;;;5103647;27;19993;-70
2022/04/07 06:47:51;;;;;;;;;;;7.60;99.90;;;;;;5098902;28;19927;-70
2022/04/07 06:50:17;;;;;;;;;;;7.40;99.90;;;;;;5093627;28;19916;-70
2022/04/07 06:52:43;;;;;;;;;;;7.40;99.90;;;;;;5089906;28;19923;-69
2022/04/07 06:55:09;;;;;;;;;;;7.40;99.90;;;;;;5091352;28;19916;-69
2022/04/07 06:57:49;;;;;;;;;;;7.30;99.90;;;;;;5091383;28;19971;-70
2022/04/07 07:00:15;;;;;;;;;;;7.20;99.90;;;;;;5091106;28;20013;-70
2022/04/07 07:02:41;;;;;;;;;;;7.20;99.90;;;;;;5091349;28;19970;-70
2022/04/07 07:05:06;;;;;;;;;;;7.10;99.90;;;;;;5089968;28;19920;-71
2022/04/07 07:07:32;;;;;;;;;;;7.20;99.90;;;;;;5073018;28;19916;-70
2022/04/07 07:09:57;;;;;;;;;;;7.20;99.90;;;;;;5090865;28;19923;-71
2022/04/07 07:12:23;;;;;;;;;;;7.20;99.90;;;;;;5091069;28;19916;-72
2022/04/07 07:14:48;;;;;;;;;;;7.10;99.90;;;;;;5091482;28;19916;-73
2022/04/07 07:17:14;;;;;;;;;;;7.00;99.90;;;;;;5093683;28;19926;-72
2022/04/07 07:19:39;;;;;;;;;;;7.00;99.90;;;;;;5094812;28;19920;-73
2022/04/07 07:22:05;;;;;;;;;;;6.90;99.90;;;;;;5093549;28;19922;-74
2022/04/07 07:24:30;;;;;;;;;;;6.90;99.90;;;;;;5094868;28;19981;-74
2022/04/07 07:26:56;;;;;;;;;;;6.80;99.90;;;;;;5093560;28;19927;-73
2022/04/07 07:29:21;;;;;;;;;;;6.90;99.90;;;;;;5094622;28;19926;-74
2022/04/07 07:31:47;;;;;;;;;;;6.90;99.90;;;;;;5093456;28;19923;-74
2022/04/07 07:34:12;;;;;;;;;;;6.80;99.90;;;;;;5093477;28;19996;-74
2022/04/07 07:36:37;;;;;;;;;;;6.80;99.90;;;;;;5094569;28;19924;-73
2022/04/07 07:39:03;;;;;;;;;;;6.80;99.90;;;;;;5093289;28;19916;-74
2022/04/07 07:41:28;;;;;;;;;;;6.80;99.90;;;;;;5094675;28;19922;-73
2022/04/07 07:43:54;;;;;;;;;;;6.80;99.90;;;;;;5094614;28;20303;-73
2022/04/07 07:46:20;;;;;;;;;;;6.60;99.90;;;;;;5093092;28;19916;-73
2022/04/07 07:48:45;;;;;;;;;;;6.60;99.90;;;;;;5098419;28;20500;-74
2022/04/07 07:51:11;;;;;;;;;;;6.70;99.90;;;;;;5102561;28;20030;-74
2022/04/07 07:53:37;;;;;;;;;;;6.60;99.90;;;;;;5103865;28;19972;-74
2022/04/07 07:56:02;;;;;;;;;;;6.60;99.90;;;;;;5103211;28;20322;-74
2022/04/07 07:58:28;;;;;;;;;;;6.50;99.90;;;;;;5103552;28;19920;-73
2022/04/07 08:00:54;;;;;;;;;;;6.40;99.90;;;;;;5120826;27;19959;-73
2022/04/07 08:03:20;;;;;;;;;;;6.50;99.90;;;;;;5101826;28;19923;-73
2022/04/07 08:05:45;;;;;;;;;;;6.60;99.90;;;;;;5105620;28;20350;-72
2022/04/07 08:08:11;;;;;;;;;;;6.50;99.90;;;;;;5103896;28;20062;-71
2022/04/07 08:10:37;;;;;;;;;;;6.60;99.90;;;;;;5103368;28;19972;-71
2022/04/07 08:13:02;;;;;;;;;;;6.60;99.90;;;;;;5102324;28;19923;-71
2022/04/07 08:15:28;;;;;;;;;;;6.60;99.90;;;;;;5103338;28;19916;-71
2022/04/07 08:17:53;;;;;;;;;;;6.60;99.90;;;;;;5102915;28;20592;-70
2022/04/07 08:20:19;;;;;;;;;;;6.60;99.90;;;;;;5106360;28;19923;-70
2022/04/07 08:22:45;;;;;;;;;;;6.70;99.90;;;;;;5110047;28;20002;-70
2022/04/07 08:25:10;;;;;;;;;;;6.70;99.90;;;;;;5111934;28;19968;-70
2022/04/07 08:27:36;;;;;;;;;;;6.80;99.90;;;;;;5103206;28;19923;-70
2022/04/07 08:30:02;;;;;;;;;;;6.80;99.90;;;;;;5096899;28;19920;-71
2022/04/07 08:32:31;;;;;;;;;;;6.90;99.90;;;;;;5095435;28;19916;-71
2022/04/07 08:34:58;;;;;;;;;;;6.80;99.90;;;;;;5095965;28;19930;-72
2022/04/07 08:37:23;;;;;;;;;;;6.80;99.90;;;;;;5095682;28;19920;-71
2022/04/07 08:39:50;;;;;;;;;;;6.90;99.90;;;;;;5097541;28;20287;-70
2022/04/07 08:42:18;;;;;;;;;;;6.90;99.90;;;;;;5093922;28;19916;-70
2022/04/07 08:44:43;;;;;;;;;;;6.90;99.90;;;;;;5094053;28;19960;-71
2022/04/07 08:47:09;;;;;;;;;;;7.00;99.90;;;;;;5093853;28;19920;-71
2022/04/07 08:49:35;;;;;;;;;;;7.10;99.90;;;;;;5092997;28;20307;-70
2022/04/07 08:52:01;;;;;;;;;;;7.00;99.90;;;;;;5074892;28;19916;-72
2022/04/07 08:54:30;;;;;;;;;;;7.00;99.90;;;;;;5091711;28;19939;-71
2022/04/07 08:56:55;;;;;;;;;;;7.00;99.90;;;;;;5091697;28;19920;-71
2022/04/07 08:59:21;;;;;;;;;;;7.10;99.90;;;;;;5092944;28;19957;-71
2022/04/07 09:01:46;;;;;;;;;;;7.30;99.90;;;;;;5093076;28;19920;-71
2022/04/07 09:04:13;;;;;;;;;;;7.50;99.90;;;;;;5091678;28;19938;-71
2022/04/07 09:06:39;;;;;;;;;;;7.60;99.90;;;;;;5092980;28;19916;-70
2022/04/07 09:09:09;;;;;;;;;;;7.70;99.90;;;;;;5092549;28;19920;-71
2022/04/07 09:11:35;;;;;;;;;;;7.80;99.90;;;;;;5091651;28;19923;-71
2022/04/07 09:14:00;;;;;;;;;;;7.80;99.90;;;;;;5093108;28;19915;-70
2022/04/07 09:16:27;;;;;;;;;;;7.90;99.90;;;;;;5092889;28;19923;-70
2022/04/07 09:18:53;;;;;;;;;;;8.00;99.90;;;;;;5092652;28;19916;-70
2022/04/07 09:21:24;;;;;;;;;;;8.00;99.90;;;;;;5092639;28;19920;-70
2022/04/07 09:23:52;;;;;;;;;;;8.20;99.90;;;;;;5092912;28;19916;-70
2022/04/07 09:26:17;;;;;;;;;;;8.20;99.90;;;;;;5091616;28;19926;-70
2022/04/07 09:28:43;;;;;;;;;;;8.30;99.90;;;;;;5092435;28;20002;-70
2022/04/07 09:31:13;;;;;;;;;;;8.40;99.90;;;;;;5091137;28;20003;-71
2022/04/07 09:33:38;;;;;;;;;;;8.50;99.90;;;;;;5092490;28;19961;-71
2022/04/07 09:36:08;;;;;;;;;;;8.50;99.90;;;;;;5092241;28;19920;-71
2022/04/07 09:38:35;;;;;;;;;;;8.60;99.90;;;;;;5090055;28;19920;-70
2022/04/07 09:41:08;;;;;;;;;;;8.70;99.90;;;;;;5092264;28;19916;-70
2022/04/07 09:43:45;;;;;;;;;;;8.80;99.90;;;;;;5092387;28;20035;-70
2022/04/07 09:46:11;;;;;;;;;;;8.90;99.90;;;;;;5092218;28;20372;-70
2022/04/07 09:48:37;;;;;;;;;;;8.90;99.90;;;;;;5091899;28;19993;-70
2022/04/07 09:51:06;;;;;;;;;;;9.00;99.90;;;;;;5092428;28;19964;-70
2022/04/07 09:53:39;;;;;;;;;;;9.00;99.90;;;;;;5091057;28;19920;-70
2022/04/07 09:56:05;;;;;;;;;;;9.10;99.90;;;;;;5092268;28;19920;-70
2022/04/07 09:58:31;;;;;;;;;;;9.10;99.90;;;;;;5091985;28;19916;-69
2022/04/07 10:00:59;;;;;;;;;;;9.20;99.90;;;;;;5091093;28;20391;-70
2022/04/07 10:03:26;;;;;;;;;;;9.30;99.90;;;;;;5091963;28;19919;-70
2022/04/07 10:05:52;;;;;;;;;;;9.30;99.90;;;;;;5091936;28;19919;-70
2022/04/07 10:08:18;;;;;;;;;;;9.40;99.90;;;;;;5090428;28;20383;-70
2022/04/07 10:10:43;;;;;;;;;;;9.40;99.90;;;;;;5090313;28;20028;-70
2022/04/07 10:13:09;;;;;;;;;;;9.50;99.90;;;;;;5090532;28;20396;-70
2022/04/07 10:15:35;;;;;;;;;;;9.60;99.90;;;;;;5090321;28;20352;-69
2022/04/07 10:18:04;;;;;;;;;;;9.50;99.90;;;;;;5091856;28;20006;-70
2022/04/07 10:20:33;;;;;;;;;;;9.50;99.90;;;;;;5091492;28;19968;-69
2022/04/07 10:23:17;;;;;;;;;;;9.40;99.90;;;;;;5090305;28;19916;-69
2022/04/07 10:25:44;;;;;;;;;;;9.40;99.90;;;;;;5091636;28;19947;-69
2022/04/07 10:28:10;;;;;;;;;;;9.40;99.90;;;;;;5091540;28;20008;-70
2022/04/07 10:30:48;;;;;;;;;;;9.40;99.90;;;;;;5091286;28;20367;-69
2022/04/07 10:33:33;;;;;;;;;;;9.50;99.90;;;;;;5091254;28;19920;-69
2022/04/07 10:35:59;;;;;;;;;;;9.80;99.90;;;;;;5090148;28;19926;-71
2022/04/07 10:38:37;;;;;;;;;;;10.00;99.90;;;;;;5090314;28;20010;-72
2022/04/07 10:41:03;;;;;;;;;;;10.00;99.90;;;;;;5090327;28;20423;-68
2022/04/07 10:43:29;;;;;;;;;;;10.10;99.90;;;;;;5091388;28;20028;-68
2022/04/07 10:46:01;;;;;;;;;;;10.20;99.90;;;;;;5091202;28;19916;-68
2022/04/07 10:48:28;;;;;;;;;;;10.30;99.90;;;;;;5091895;28;20006;-68
2022/04/07 10:51:01;;;;;;;;;;;10.50;99.90;;;;;;5094293;28;19920;-71
2022/04/07 10:53:34;;;;;;;;;;;10.50;99.90;;;;;;5094234;28;19920;-68
2022/04/07 10:56:01;;;;;;;;;;;10.50;99.90;;;;;;5095533;28;20287;-69
2022/04/07 10:58:36;;;;;;;;;;;10.50;99.90;;;;;;5095120;28;19942;-69
2022/04/07 11:01:02;;;;;;;;;;;10.50;99.90;;;;;;5094052;28;19946;-69
2022/04/07 11:03:28;;;;;;;;;;;10.50;99.90;;;;;;5095400;28;20408;-69
2022/04/07 11:05:58;;;;;;;;;;;10.50;99.90;;;;;;5095518;28;19951;-69
2022/04/07 11:08:23;;;;;;;;;;;10.50;99.90;;;;;;5095300;28;19916;-69
2022/04/07 11:10:50;;;;;;;;;;;10.50;99.90;;;;;;5095090;28;20009;-69
2022/04/07 11:13:16;;;;;;;;;;;10.50;99.90;;;;;;5095050;28;19916;-68
2022/04/07 11:15:48;;;;;;;;;;;10.50;99.90;;;;;;5085902;28;19920;-68
2022/04/07 11:18:20;;;;;;;;;;;10.50;99.90;;;;;;5097330;28;19916;-68
2022/04/07 11:21:05;;;;;;;;;;;10.50;99.90;;;;;;5094748;28;19941;-69
2022/04/07 11:23:37;;;;;;;;;;;10.50;99.90;;;;;;5094392;28;19915;-69
2022/04/07 11:26:18;;;;;;;;;;;10.40;99.90;;;;;;5094833;28;19916;-69
2022/04/07 11:29:04;;;;;;;;;;;10.40;99.90;;;;;;5094473;28;19920;-69
2022/04/07 11:31:40;;;;;;;;;;;10.20;99.90;;;;;;5085783;28;19923;-69
2022/04/07 11:34:25;;;;;;;;;;;10.10;99.90;;;;;;5113904;28;19930;-69
2022/04/07 11:36:51;;;;;;;;;;;10.20;99.90;;;;;;5084104;28;19920;-70
2022/04/07 11:39:17;;;;;;;;;;;10.30;99.90;;;;;;5093525;28;19920;-69
2022/04/07 11:41:43;;;;;;;;;;;10.30;99.90;;;;;;5103406;28;19976;-69
2022/04/07 11:44:09;;;;;;;;;;;10.30;99.90;;;;;;5104657;28;20010;-69
2022/04/07 11:46:35;;;;;;;;;;;10.30;99.90;;;;;;5101555;28;19916;-69
2022/04/07 11:49:01;;;;;;;;;;;10.40;99.90;;;;;;5111379;28;19915;-69
2022/04/07 11:51:26;;;;;;;;;;;10.40;99.90;;;;;;5112676;28;20002;-69
2022/04/07 11:53:53;;;;;;;;;;;10.40;99.90;;;;;;5113840;28;20386;-70
2022/04/07 11:56:20;;;;;;;;;;;10.40;99.90;;;;;;5113927;28;19920;-69
2022/04/07 11:58:52;;;;;;;;;;;10.50;99.90;;;;;;5111848;28;19993;-69
2022/04/07 12:01:17;;;;;;;;;;;10.50;99.90;;;;;;5103184;28;19926;-68
2022/04/07 12:03:43;;;;;;;;;;;10.60;99.90;;;;;;5100930;28;19920;-68
2022/04/07 12:06:09;;;;;;;;;;;10.60;99.90;;;;;;5113391;28;19915;-69
2022/04/07 12:08:35;;;;;;;;;;;10.60;99.90;;;;;;5113176;28;19923;-68
2022/04/07 12:11:01;;;;;;;;;;;10.70;99.90;;;;;;5096458;28;20367;-68
2022/04/07 12:13:27;;;;;;;;;;;10.70;99.90;;;;;;5098933;28;20010;-69
2022/04/07 12:15:52;;;;;;;;;;;10.70;99.90;;;;;;5107983;28;20336;-68
2022/04/07 12:18:29;;;;;;;;;;;10.80;99.90;;;;;;5113308;28;20014;-69
2022/04/07 12:20:59;;;;;;;;;;;10.70;99.90;;;;;;5109057;28;20003;-67
2022/04/07 12:23:26;;;;;;;;;;;10.70;99.90;;;;;;5111835;28;19915;-69
2022/04/07 12:25:56;;;;;;;;;;;10.70;99.90;;;;;;5092956;28;20022;-67
2022/04/07 12:28:22;;;;;;;;;;;10.70;99.90;;;;;;5091817;28;20330;-67
2022/04/07 12:30:49;;;;;;;;;;;10.70;99.90;;;;;;5091783;28;19920;-67
2022/04/07 12:33:33;;;;;;;;;;;10.70;99.90;;;;;;5092944;28;20415;-69
2022/04/07 12:35:58;;;;;;;;;;;10.70;99.90;;;;;;5091887;28;20380;-69
2022/04/07 12:38:24;;;;;;;;;;;10.70;99.90;;;;;;5096630;28;20064;-70
2022/04/07 12:40:49;;;;;;;;;;;10.80;99.90;;;;;;5104446;28;20276;-68
2022/04/07 12:43:15;;;;;;;;;;;10.80;99.90;;;;;;5110522;28;20408;-69
2022/04/07 12:46:01;;;;;;;;;;;10.80;99.90;;;;;;5110184;28;19916;-69
2022/04/07 12:48:28;;;;;;;;;;;10.90;99.90;;;;;;5112009;28;20508;-69
2022/04/07 12:50:53;;;;;;;;;;;10.90;99.90;;;;;;5113136;28;19916;-68
2022/04/07 12:53:29;;;;;;;;;;;11.00;99.90;;;;;;5113591;28;19922;-69
2022/04/07 12:55:55;;;;;;;;;;;11.00;99.90;;;;;;5112945;28;19923;-70
2022/04/07 12:58:27;;;;;;;;;;;11.00;99.90;;;;;;5113153;28;19923;-68
2022/04/07 13:00:59;;;;;;;;;;;11.10;99.90;;;;;;5111523;28;20387;-68
2022/04/07 13:03:28;;;;;;;;;;;11.00;99.90;;;;;;5112872;28;19919;-70
2022/04/07 13:05:54;;;;;;;;;;;11.00;99.90;;;;;;5110690;28;20397;-69
2022/04/07 13:08:19;;;;;;;;;;;10.90;99.90;;;;;;5099775;28;19916;-69
2022/04/07 13:10:45;;;;;;;;;;;10.90;99.90;;;;;;5091666;28;19954;-68
2022/04/07 13:13:10;;;;;;;;;;;10.90;99.90;;;;;;5091487;28;19995;-69
2022/04/07 13:15:36;;;;;;;;;;;10.90;99.90;;;;;;5091341;28;19921;-70
2022/04/07 13:18:02;;;;;;;;;;;10.90;99.90;;;;;;5074626;28;19924;-69
2022/04/07 13:20:28;;;;;;;;;;;10.80;99.90;;;;;;5092117;28;19927;-69
2022/04/07 13:22:54;;;;;;;;;;;10.60;99.90;;;;;;5073891;28;19916;-71
2022/04/07 13:25:20;;;;;;;;;;;10.00;99.90;;;;;;5090562;28;19927;-71
2022/04/07 13:27:45;;;;;;;;;;;9.70;99.90;;;;;;5091168;28;19963;-72
2022/04/07 13:30:12;;;;;;;;;;;9.70;99.90;;;;;;5089719;28;20631;-73
2022/04/07 13:32:38;;;;;;;;;;;9.60;99.90;;;;;;5090078;28;19920;-73
2022/04/07 13:35:04;;;;;;;;;;;9.60;99.90;;;;;;5090647;28;19916;-74
2022/04/07 13:37:30;;;;;;;;;;;9.60;99.90;;;;;;5091680;28;20011;-71
2022/04/07 13:39:55;;;;;;;;;;;9.60;99.90;;;;;;5090133;28;19920;-70
2022/04/07 13:42:21;;;;;;;;;;;9.60;99.90;;;;;;5096407;28;20268;-68
2022/04/07 13:44:46;;;;;;;;;;;9.50;99.90;;;;;;5090789;28;19927;-70
2022/04/07 13:47:12;;;;;;;;;;;9.40;99.90;;;;;;5091584;28;20415;-71
2022/04/07 13:49:38;;;;;;;;;;;9.20;99.90;;;;;;5072707;28;20010;-74
2022/04/07 13:52:03;;;;;;;;;;;8.90;99.90;;;;;;5090280;28;19924;-73
2022/04/07 13:54:29;;;;;;;;;;;9.00;99.90;;;;;;5089976;28;19969;-69
2022/04/07 13:56:55;;;;;;;;;;;9.00;99.90;;;;;;5091679;28;20364;-72
2022/04/07 13:59:21;;;;;;;;;;;9.10;99.90;;;;;;5104352;28;19926;-71
2022/04/07 14:01:46;;;;;;;;;;;9.10;99.90;;;;;;5110708;28;20298;-70
2022/04/07 14:04:12;;;;;;;;;;;9.00;99.90;;;;;;5111975;28;19926;-68
2022/04/07 14:06:38;;;;;;;;;;;9.00;99.90;;;;;;5111471;28;20295;-69
2022/04/07 14:09:06;;;;;;;;;;;9.10;99.90;;;;;;5111036;28;20029;-69
2022/04/07 14:11:33;;;;;;;;;;;9.20;99.90;;;;;;5111406;28;20380;-68
2022/04/07 14:14:00;;;;;;;;;;;9.20;99.90;;;;;;5111988;27;19966;-69
2022/04/07 14:16:25;;;;;;;;;;;9.20;99.90;;;;;;5110455;28;20280;-69
2022/04/07 14:18:51;;;;;;;;;;;9.30;99.90;;;;;;5111619;28;20003;-69
2022/04/07 14:21:18;;;;;;;;;;;9.40;99.90;;;;;;5111620;28;19919;-69
2022/04/07 14:23:44;;;;;;;;;;;9.50;99.90;;;;;;5111441;28;20351;-68
2022/04/07 14:26:09;;;;;;;;;;;9.50;99.90;;;;;;5111530;28;19916;-69